sensor_id;sensor_type;location;lat;lon;timestamp;P1;durP1;ratioP1;P2;durP2;ratioP2
59294;SDS011;45067;44.654;20.200;2023-07-13T00:00:33;26.67;;;17.00;;
59294;SDS011;45067;44.654;20.200;2023-07-13T00:03:13;27.58;;;15.48;;
59294;SDS011;45067;44.654;20.200;2023-07-13T00:05:39;29.27;;;15.52;;
59294;SDS011;45067;44.654;20.200;2023-07-13T00:08:06;28.33;;;16.70;;
59294;SDS011;45067;44.654;20.200;2023-07-13T00:10:33;25.02;;;14.93;;
59294;SDS011;45067;44.654;20.200;2023-07-13T00:12:59;27.95;;;15.43;;
59294;SDS011;45067;44.654;20.200;2023-07-13T00:15:26;23.23;;;14.93;;
59294;SDS011;45067;44.654;20.200;2023-07-13T00:18:07;25.97;;;13.43;;
59294;SDS011;45067;44.654;20.200;2023-07-13T00:20:33;24.00;;;14.60;;
59294;SDS011;45067;44.654;20.200;2023-07-13T00:22:59;22.38;;;13.23;;
59294;SDS011;45067;44.654;20.200;2023-07-13T00:25:25;23.20;;;14.05;;
59294;SDS011;45067;44.654;20.200;2023-07-13T00:27:53;25.70;;;15.30;;
59294;SDS011;45067;44.654;20.200;2023-07-13T00:30:19;27.58;;;14.30;;
59294;SDS011;45067;44.654;20.200;2023-07-13T00:32:45;28.17;;;15.30;;
59294;SDS011;45067;44.654;20.200;2023-07-13T00:35:12;27.33;;;15.68;;
59294;SDS011;45067;44.654;20.200;2023-07-13T00:37:39;27.75;;;16.77;;
59294;SDS011;45067;44.654;20.200;2023-07-13T00:40:05;23.58;;;14.57;;
59294;SDS011;45067;44.654;20.200;2023-07-13T00:42:31;21.70;;;14.18;;
59294;SDS011;45067;44.654;20.200;2023-07-13T00:47:39;29.55;;;14.52;;
59294;SDS011;45067;44.654;20.200;2023-07-13T00:50:06;23.63;;;13.45;;
59294;SDS011;45067;44.654;20.200;2023-07-13T00:52:33;21.75;;;14.07;;
59294;SDS011;45067;44.654;20.200;2023-07-13T00:55:00;24.13;;;14.15;;
59294;SDS011;45067;44.654;20.200;2023-07-13T00:57:28;21.23;;;13.50;;
59294;SDS011;45067;44.654;20.200;2023-07-13T00:59:55;21.85;;;13.18;;
59294;SDS011;45067;44.654;20.200;2023-07-13T01:02:23;18.08;;;13.15;;
59294;SDS011;45067;44.654;20.200;2023-07-13T01:04:49;22.77;;;13.00;;
59294;SDS011;45067;44.654;20.200;2023-07-13T01:07:16;18.30;;;12.18;;
59294;SDS011;45067;44.654;20.200;2023-07-13T01:09:42;20.17;;;12.73;;
59294;SDS011;45067;44.654;20.200;2023-07-13T01:12:09;19.63;;;12.32;;
59294;SDS011;45067;44.654;20.200;2023-07-13T01:14:35;21.83;;;11.40;;
59294;SDS011;45067;44.654;20.200;2023-07-13T01:20:06;18.63;;;12.30;;
59294;SDS011;45067;44.654;20.200;2023-07-13T01:22:33;24.65;;;12.02;;
59294;SDS011;45067;44.654;20.200;2023-07-13T01:24:59;24.95;;;12.15;;
59294;SDS011;45067;44.654;20.200;2023-07-13T01:27:26;19.30;;;12.20;;
59294;SDS011;45067;44.654;20.200;2023-07-13T01:29:53;17.75;;;11.55;;
59294;SDS011;45067;44.654;20.200;2023-07-13T01:32:33;19.65;;;12.40;;
59294;SDS011;45067;44.654;20.200;2023-07-13T01:34:59;20.90;;;11.82;;
59294;SDS011;45067;44.654;20.200;2023-07-13T01:37:25;24.23;;;12.40;;
59294;SDS011;45067;44.654;20.200;2023-07-13T01:39:52;23.17;;;12.20;;
59294;SDS011;45067;44.654;20.200;2023-07-13T01:42:18;24.70;;;12.10;;
59294;SDS011;45067;44.654;20.200;2023-07-13T01:44:44;19.80;;;12.55;;
59294;SDS011;45067;44.654;20.200;2023-07-13T01:47:11;17.70;;;12.10;;
59294;SDS011;45067;44.654;20.200;2023-07-13T01:49:37;20.33;;;11.35;;
59294;SDS011;45067;44.654;20.200;2023-07-13T01:52:03;20.77;;;11.45;;
59294;SDS011;45067;44.654;20.200;2023-07-13T01:54:29;21.52;;;11.40;;
59294;SDS011;45067;44.654;20.200;2023-07-13T01:56:55;20.05;;;11.30;;
59294;SDS011;45067;44.654;20.200;2023-07-13T01:59:21;23.50;;;11.80;;
59294;SDS011;45067;44.654;20.200;2023-07-13T02:01:52;19.67;;;11.35;;
59294;SDS011;45067;44.654;20.200;2023-07-13T02:04:19;19.05;;;11.02;;
59294;SDS011;45067;44.654;20.200;2023-07-13T02:06:45;19.80;;;11.02;;
59294;SDS011;45067;44.654;20.200;2023-07-13T02:09:11;18.65;;;10.75;;
59294;SDS011;45067;44.654;20.200;2023-07-13T02:11:37;19.52;;;10.55;;
59294;SDS011;45067;44.654;20.200;2023-07-13T02:14:03;15.27;;;10.05;;
59294;SDS011;45067;44.654;20.200;2023-07-13T02:16:29;20.77;;;10.60;;
59294;SDS011;45067;44.654;20.200;2023-07-13T02:21:59;18.38;;;11.45;;
59294;SDS011;45067;44.654;20.200;2023-07-13T02:24:25;23.17;;;11.63;;
59294;SDS011;45067;44.654;20.200;2023-07-13T02:26:52;17.90;;;11.80;;
59294;SDS011;45067;44.654;20.200;2023-07-13T02:29:18;20.75;;;11.27;;
59294;SDS011;45067;44.654;20.200;2023-07-13T02:31:44;19.38;;;12.35;;
59294;SDS011;45067;44.654;20.200;2023-07-13T02:37:13;17.48;;;11.77;;
59294;SDS011;45067;44.654;20.200;2023-07-13T02:39:39;22.80;;;12.48;;
59294;SDS011;45067;44.654;20.200;2023-07-13T02:42:06;17.77;;;11.52;;
59294;SDS011;45067;44.654;20.200;2023-07-13T02:44:32;18.27;;;11.82;;
59294;SDS011;45067;44.654;20.200;2023-07-13T02:49:52;20.85;;;10.63;;
59294;SDS011;45067;44.654;20.200;2023-07-13T02:52:19;21.98;;;11.20;;
59294;SDS011;45067;44.654;20.200;2023-07-13T02:54:45;19.35;;;10.48;;
59294;SDS011;45067;44.654;20.200;2023-07-13T02:57:11;18.42;;;11.13;;
59294;SDS011;45067;44.654;20.200;2023-07-13T02:59:37;18.23;;;10.38;;
59294;SDS011;45067;44.654;20.200;2023-07-13T03:02:03;16.92;;;11.50;;
59294;SDS011;45067;44.654;20.200;2023-07-13T03:04:30;21.70;;;11.60;;
59294;SDS011;45067;44.654;20.200;2023-07-13T03:06:56;18.85;;;11.43;;
59294;SDS011;45067;44.654;20.200;2023-07-13T03:09:23;22.60;;;11.60;;
59294;SDS011;45067;44.654;20.200;2023-07-13T03:11:51;20.40;;;11.07;;
59294;SDS011;45067;44.654;20.200;2023-07-13T03:14:18;17.05;;;10.98;;
59294;SDS011;45067;44.654;20.200;2023-07-13T03:16:44;20.00;;;10.77;;
59294;SDS011;45067;44.654;20.200;2023-07-13T03:19:10;22.17;;;11.95;;
59294;SDS011;45067;44.654;20.200;2023-07-13T03:21:36;13.80;;;10.05;;
59294;SDS011;45067;44.654;20.200;2023-07-13T03:24:02;17.00;;;10.40;;
59294;SDS011;45067;44.654;20.200;2023-07-13T03:26:28;19.15;;;9.88;;
59294;SDS011;45067;44.654;20.200;2023-07-13T03:28:54;16.88;;;9.70;;
59294;SDS011;45067;44.654;20.200;2023-07-13T03:31:27;20.33;;;10.10;;
59294;SDS011;45067;44.654;20.200;2023-07-13T03:34:12;25.20;;;12.07;;
59294;SDS011;45067;44.654;20.200;2023-07-13T03:36:38;17.55;;;10.50;;
59294;SDS011;45067;44.654;20.200;2023-07-13T03:39:04;20.33;;;10.73;;
59294;SDS011;45067;44.654;20.200;2023-07-13T03:41:33;17.85;;;10.35;;
59294;SDS011;45067;44.654;20.200;2023-07-13T03:43:59;17.75;;;11.35;;
59294;SDS011;45067;44.654;20.200;2023-07-13T03:46:25;17.50;;;10.70;;
59294;SDS011;45067;44.654;20.200;2023-07-13T03:48:52;16.83;;;10.73;;
59294;SDS011;45067;44.654;20.200;2023-07-13T03:51:18;20.95;;;9.65;;
59294;SDS011;45067;44.654;20.200;2023-07-13T03:53:45;17.02;;;9.95;;
59294;SDS011;45067;44.654;20.200;2023-07-13T03:56:12;16.05;;;10.45;;
59294;SDS011;45067;44.654;20.200;2023-07-13T03:58:40;21.58;;;10.90;;
59294;SDS011;45067;44.654;20.200;2023-07-13T04:01:08;17.02;;;11.27;;
59294;SDS011;45067;44.654;20.200;2023-07-13T04:03:34;21.08;;;9.90;;
59294;SDS011;45067;44.654;20.200;2023-07-13T04:06:02;23.27;;;11.73;;
59294;SDS011;45067;44.654;20.200;2023-07-13T04:08:29;21.40;;;10.82;;
59294;SDS011;45067;44.654;20.200;2023-07-13T04:10:56;20.80;;;11.18;;
59294;SDS011;45067;44.654;20.200;2023-07-13T04:13:23;18.52;;;10.63;;
59294;SDS011;45067;44.654;20.200;2023-07-13T04:15:49;16.90;;;10.32;;
59294;SDS011;45067;44.654;20.200;2023-07-13T04:21:06;17.65;;;10.63;;
59294;SDS011;45067;44.654;20.200;2023-07-13T04:23:33;19.50;;;10.45;;
59294;SDS011;45067;44.654;20.200;2023-07-13T04:26:00;14.98;;;9.70;;
59294;SDS011;45067;44.654;20.200;2023-07-13T04:28:26;15.88;;;10.90;;
59294;SDS011;45067;44.654;20.200;2023-07-13T04:30:52;13.45;;;9.82;;
59294;SDS011;45067;44.654;20.200;2023-07-13T04:33:18;16.75;;;10.15;;
59294;SDS011;45067;44.654;20.200;2023-07-13T04:35:48;14.68;;;10.20;;
59294;SDS011;45067;44.654;20.200;2023-07-13T04:38:14;19.45;;;9.68;;
59294;SDS011;45067;44.654;20.200;2023-07-13T04:40:42;18.95;;;9.35;;
59294;SDS011;45067;44.654;20.200;2023-07-13T04:43:08;13.48;;;9.43;;
59294;SDS011;45067;44.654;20.200;2023-07-13T04:45:35;14.50;;;9.50;;
59294;SDS011;45067;44.654;20.200;2023-07-13T04:48:01;17.58;;;9.98;;
59294;SDS011;45067;44.654;20.200;2023-07-13T04:50:27;19.52;;;10.15;;
59294;SDS011;45067;44.654;20.200;2023-07-13T04:52:53;16.38;;;10.70;;
59294;SDS011;45067;44.654;20.200;2023-07-13T04:55:19;17.75;;;10.50;;
59294;SDS011;45067;44.654;20.200;2023-07-13T04:57:45;19.02;;;10.52;;
59294;SDS011;45067;44.654;20.200;2023-07-13T05:00:12;18.20;;;9.85;;
59294;SDS011;45067;44.654;20.200;2023-07-13T05:02:39;16.98;;;9.68;;
59294;SDS011;45067;44.654;20.200;2023-07-13T05:05:06;16.42;;;10.40;;
59294;SDS011;45067;44.654;20.200;2023-07-13T05:07:32;18.30;;;10.32;;
59294;SDS011;45067;44.654;20.200;2023-07-13T05:09:59;15.77;;;9.98;;
59294;SDS011;45067;44.654;20.200;2023-07-13T05:12:25;19.70;;;10.65;;
59294;SDS011;45067;44.654;20.200;2023-07-13T05:14:52;17.30;;;10.85;;
59294;SDS011;45067;44.654;20.200;2023-07-13T05:17:18;17.10;;;10.27;;
59294;SDS011;45067;44.654;20.200;2023-07-13T05:19:44;19.38;;;10.18;;
59294;SDS011;45067;44.654;20.200;2023-07-13T05:22:11;18.10;;;10.52;;
59294;SDS011;45067;44.654;20.200;2023-07-13T05:24:37;17.23;;;10.25;;
59294;SDS011;45067;44.654;20.200;2023-07-13T05:27:03;19.33;;;10.70;;
59294;SDS011;45067;44.654;20.200;2023-07-13T05:29:29;18.08;;;9.90;;
59294;SDS011;45067;44.654;20.200;2023-07-13T05:31:55;18.10;;;9.35;;
59294;SDS011;45067;44.654;20.200;2023-07-13T05:37:25;13.93;;;9.90;;
59294;SDS011;45067;44.654;20.200;2023-07-13T05:39:51;18.65;;;9.25;;
59294;SDS011;45067;44.654;20.200;2023-07-13T05:42:17;14.35;;;9.52;;
59294;SDS011;45067;44.654;20.200;2023-07-13T05:44:43;13.35;;;9.32;;
59294;SDS011;45067;44.654;20.200;2023-07-13T05:47:09;19.77;;;9.80;;
59294;SDS011;45067;44.654;20.200;2023-07-13T05:52:39;15.82;;;9.25;;
59294;SDS011;45067;44.654;20.200;2023-07-13T05:55:05;14.32;;;8.90;;
59294;SDS011;45067;44.654;20.200;2023-07-13T05:57:31;17.90;;;8.88;;
59294;SDS011;45067;44.654;20.200;2023-07-13T05:59:57;12.82;;;8.90;;
59294;SDS011;45067;44.654;20.200;2023-07-13T06:02:25;13.40;;;8.25;;
59294;SDS011;45067;44.654;20.200;2023-07-13T06:07:55;16.55;;;8.80;;
59294;SDS011;45067;44.654;20.200;2023-07-13T06:10:21;17.90;;;8.90;;
59294;SDS011;45067;44.654;20.200;2023-07-13T06:12:47;13.13;;;8.75;;
59294;SDS011;45067;44.654;20.200;2023-07-13T06:15:13;14.70;;;8.13;;
59294;SDS011;45067;44.654;20.200;2023-07-13T06:17:39;15.88;;;8.63;;
59294;SDS011;45067;44.654;20.200;2023-07-13T06:23:09;14.10;;;8.40;;
59294;SDS011;45067;44.654;20.200;2023-07-13T06:25:35;16.13;;;9.18;;
59294;SDS011;45067;44.654;20.200;2023-07-13T06:28:01;19.30;;;7.82;;
59294;SDS011;45067;44.654;20.200;2023-07-13T06:30:27;13.15;;;8.10;;
59294;SDS011;45067;44.654;20.200;2023-07-13T06:32:53;15.55;;;7.55;;
59294;SDS011;45067;44.654;20.200;2023-07-13T06:38:23;11.95;;;6.60;;
59294;SDS011;45067;44.654;20.200;2023-07-13T06:40:49;10.23;;;6.35;;
59294;SDS011;45067;44.654;20.200;2023-07-13T06:43:15;13.05;;;6.57;;
59294;SDS011;45067;44.654;20.200;2023-07-13T06:45:43;9.85;;;6.32;;
59294;SDS011;45067;44.654;20.200;2023-07-13T06:48:11;11.52;;;7.25;;
59294;SDS011;45067;44.654;20.200;2023-07-13T06:50:37;10.75;;;6.25;;
59294;SDS011;45067;44.654;20.200;2023-07-13T06:53:03;13.65;;;6.85;;
59294;SDS011;45067;44.654;20.200;2023-07-13T06:55:29;9.23;;;6.30;;
59294;SDS011;45067;44.654;20.200;2023-07-13T06:57:55;10.77;;;6.32;;
59294;SDS011;45067;44.654;20.200;2023-07-13T07:00:21;9.85;;;6.75;;
59294;SDS011;45067;44.654;20.200;2023-07-13T07:02:47;10.85;;;6.72;;
59294;SDS011;45067;44.654;20.200;2023-07-13T07:08:17;17.40;;;8.05;;
59294;SDS011;45067;44.654;20.200;2023-07-13T07:10:43;15.55;;;6.63;;
59294;SDS011;45067;44.654;20.200;2023-07-13T07:13:10;11.25;;;6.65;;
59294;SDS011;45067;44.654;20.200;2023-07-13T07:15:36;9.23;;;6.00;;
59294;SDS011;45067;44.654;20.200;2023-07-13T07:18:02;11.23;;;6.63;;
59294;SDS011;45067;44.654;20.200;2023-07-13T07:23:32;9.27;;;6.88;;
59294;SDS011;45067;44.654;20.200;2023-07-13T07:25:58;17.05;;;6.72;;
59294;SDS011;45067;44.654;20.200;2023-07-13T07:28:25;9.88;;;6.72;;
59294;SDS011;45067;44.654;20.200;2023-07-13T07:30:53;11.00;;;6.93;;
59294;SDS011;45067;44.654;20.200;2023-07-13T07:33:20;10.60;;;7.05;;
59294;SDS011;45067;44.654;20.200;2023-07-13T07:35:46;14.82;;;6.82;;
59294;SDS011;45067;44.654;20.200;2023-07-13T07:38:12;9.93;;;6.78;;
59294;SDS011;45067;44.654;20.200;2023-07-13T07:40:39;12.73;;;7.35;;
59294;SDS011;45067;44.654;20.200;2023-07-13T07:43:05;13.23;;;7.00;;
59294;SDS011;45067;44.654;20.200;2023-07-13T07:45:32;10.70;;;7.00;;
59294;SDS011;45067;44.654;20.200;2023-07-13T07:47:58;12.63;;;7.70;;
59294;SDS011;45067;44.654;20.200;2023-07-13T07:53:27;15.90;;;7.00;;
59294;SDS011;45067;44.654;20.200;2023-07-13T07:55:54;9.00;;;6.40;;
59294;SDS011;45067;44.654;20.200;2023-07-13T07:58:20;14.18;;;6.60;;
59294;SDS011;45067;44.654;20.200;2023-07-13T08:00:46;12.82;;;6.57;;
59294;SDS011;45067;44.654;20.200;2023-07-13T08:03:12;11.95;;;6.35;;
59294;SDS011;45067;44.654;20.200;2023-07-13T08:08:41;12.63;;;6.97;;
59294;SDS011;45067;44.654;20.200;2023-07-13T08:11:08;12.70;;;6.95;;
59294;SDS011;45067;44.654;20.200;2023-07-13T08:13:34;12.90;;;6.28;;
59294;SDS011;45067;44.654;20.200;2023-07-13T08:16:00;13.18;;;6.30;;
59294;SDS011;45067;44.654;20.200;2023-07-13T08:18:27;13.32;;;7.22;;
59294;SDS011;45067;44.654;20.200;2023-07-13T08:24:15;8.98;;;5.70;;
59294;SDS011;45067;44.654;20.200;2023-07-13T08:26:43;10.02;;;6.03;;
59294;SDS011;45067;44.654;20.200;2023-07-13T08:29:09;10.40;;;7.00;;
59294;SDS011;45067;44.654;20.200;2023-07-13T08:31:35;13.95;;;6.53;;
59294;SDS011;45067;44.654;20.200;2023-07-13T08:34:01;11.40;;;6.28;;
59294;SDS011;45067;44.654;20.200;2023-07-13T08:36:28;13.77;;;7.03;;
59294;SDS011;45067;44.654;20.200;2023-07-13T08:38:54;11.60;;;7.65;;
59294;SDS011;45067;44.654;20.200;2023-07-13T08:41:21;13.35;;;7.40;;
59294;SDS011;45067;44.654;20.200;2023-07-13T08:43:49;12.70;;;7.15;;
59294;SDS011;45067;44.654;20.200;2023-07-13T08:46:36;15.13;;;7.53;;
59294;SDS011;45067;44.654;20.200;2023-07-13T08:54:02;10.40;;;7.47;;
59294;SDS011;45067;44.654;20.200;2023-07-13T08:56:29;13.27;;;7.50;;
59294;SDS011;45067;44.654;20.200;2023-07-13T08:59:04;13.85;;;7.70;;
59294;SDS011;45067;44.654;20.200;2023-07-13T09:04:21;12.15;;;7.50;;
59294;SDS011;45067;44.654;20.200;2023-07-13T09:09:25;13.40;;;7.80;;
59294;SDS011;45067;44.654;20.200;2023-07-13T09:14:41;15.48;;;9.55;;
59294;SDS011;45067;44.654;20.200;2023-07-13T09:17:11;15.13;;;9.35;;
59294;SDS011;45067;44.654;20.200;2023-07-13T09:19:38;14.50;;;9.68;;
59294;SDS011;45067;44.654;20.200;2023-07-13T09:22:05;16.60;;;9.48;;
59294;SDS011;45067;44.654;20.200;2023-07-13T09:24:36;18.75;;;9.50;;
59294;SDS011;45067;44.654;20.200;2023-07-13T09:27:14;12.85;;;9.23;;
59294;SDS011;45067;44.654;20.200;2023-07-13T09:29:43;14.85;;;10.25;;
59294;SDS011;45067;44.654;20.200;2023-07-13T09:32:11;20.63;;;11.40;;
59294;SDS011;45067;44.654;20.200;2023-07-13T09:34:38;14.05;;;9.82;;
59294;SDS011;45067;44.654;20.200;2023-07-13T09:37:04;11.73;;;8.70;;
59294;SDS011;45067;44.654;20.200;2023-07-13T09:39:35;12.95;;;9.13;;
59294;SDS011;45067;44.654;20.200;2023-07-13T09:42:18;13.02;;;9.05;;
59294;SDS011;45067;44.654;20.200;2023-07-13T09:44:54;12.88;;;8.25;;
59294;SDS011;45067;44.654;20.200;2023-07-13T09:47:23;17.05;;;8.85;;
59294;SDS011;45067;44.654;20.200;2023-07-13T09:49:58;14.93;;;9.05;;
59294;SDS011;45067;44.654;20.200;2023-07-13T09:52:25;14.35;;;9.77;;
59294;SDS011;45067;44.654;20.200;2023-07-13T09:54:52;16.67;;;9.73;;
59294;SDS011;45067;44.654;20.200;2023-07-13T09:57:24;12.27;;;9.07;;
59294;SDS011;45067;44.654;20.200;2023-07-13T09:59:52;12.27;;;8.93;;
59294;SDS011;45067;44.654;20.200;2023-07-13T10:02:34;12.18;;;8.40;;
59294;SDS011;45067;44.654;20.200;2023-07-13T10:05:02;11.23;;;7.82;;
59294;SDS011;45067;44.654;20.200;2023-07-13T10:07:29;10.82;;;7.35;;
59294;SDS011;45067;44.654;20.200;2023-07-13T10:10:00;11.43;;;8.02;;
59294;SDS011;45067;44.654;20.200;2023-07-13T10:12:26;14.70;;;8.00;;
59294;SDS011;45067;44.654;20.200;2023-07-13T10:14:56;12.43;;;8.60;;
59294;SDS011;45067;44.654;20.200;2023-07-13T10:17:28;12.25;;;7.30;;
59294;SDS011;45067;44.654;20.200;2023-07-13T10:19:56;12.98;;;8.15;;
59294;SDS011;45067;44.654;20.200;2023-07-13T10:22:33;11.27;;;7.38;;
59294;SDS011;45067;44.654;20.200;2023-07-13T10:25:03;11.10;;;7.70;;
59294;SDS011;45067;44.654;20.200;2023-07-13T10:27:34;12.52;;;7.57;;
59294;SDS011;45067;44.654;20.200;2023-07-13T10:30:06;13.25;;;7.63;;
59294;SDS011;45067;44.654;20.200;2023-07-13T10:32:35;10.95;;;7.50;;
59294;SDS011;45067;44.654;20.200;2023-07-13T10:35:01;10.25;;;7.57;;
59294;SDS011;45067;44.654;20.200;2023-07-13T10:37:34;10.70;;;7.32;;
59294;SDS011;45067;44.654;20.200;2023-07-13T10:40:03;12.95;;;8.07;;
59294;SDS011;45067;44.654;20.200;2023-07-13T10:42:32;13.32;;;8.05;;
59294;SDS011;45067;44.654;20.200;2023-07-13T10:44:59;13.50;;;8.35;;
59294;SDS011;45067;44.654;20.200;2023-07-13T10:47:25;13.52;;;7.82;;
59294;SDS011;45067;44.654;20.200;2023-07-13T10:49:53;12.75;;;7.88;;
59294;SDS011;45067;44.654;20.200;2023-07-13T10:55:05;12.32;;;7.93;;
59294;SDS011;45067;44.654;20.200;2023-07-13T10:57:32;12.60;;;7.78;;
59294;SDS011;45067;44.654;20.200;2023-07-13T11:00:14;12.40;;;7.75;;
59294;SDS011;45067;44.654;20.200;2023-07-13T11:02:40;13.52;;;8.20;;
59294;SDS011;45067;44.654;20.200;2023-07-13T11:08:13;12.05;;;7.53;;
59294;SDS011;45067;44.654;20.200;2023-07-13T11:13:35;10.18;;;7.18;;
59294;SDS011;45067;44.654;20.200;2023-07-13T11:15:57;11.80;;;7.65;;
59294;SDS011;45067;44.654;20.200;2023-07-13T11:18:24;12.18;;;8.15;;
59294;SDS011;45067;44.654;20.200;2023-07-13T11:20:51;11.80;;;7.15;;
59294;SDS011;45067;44.654;20.200;2023-07-13T11:23:26;12.43;;;7.40;;
59294;SDS011;45067;44.654;20.200;2023-07-13T11:25:53;12.45;;;7.47;;
59294;SDS011;45067;44.654;20.200;2023-07-13T11:28:21;19.60;;;7.55;;
59294;SDS011;45067;44.654;20.200;2023-07-13T11:36:05;11.05;;;7.32;;
59294;SDS011;45067;44.654;20.200;2023-07-13T11:38:32;13.23;;;7.95;;
59294;SDS011;45067;44.654;20.200;2023-07-13T11:41:05;11.88;;;8.10;;
59294;SDS011;45067;44.654;20.200;2023-07-13T11:43:32;9.70;;;8.10;;
59294;SDS011;45067;44.654;20.200;2023-07-13T11:46:11;19.25;;;9.73;;
59294;SDS011;45067;44.654;20.200;2023-07-13T11:48:37;15.32;;;9.13;;
59294;SDS011;45067;44.654;20.200;2023-07-13T11:51:05;14.50;;;9.30;;
59294;SDS011;45067;44.654;20.200;2023-07-13T11:53:39;15.30;;;9.95;;
59294;SDS011;45067;44.654;20.200;2023-07-13T11:56:06;12.13;;;8.65;;
59294;SDS011;45067;44.654;20.200;2023-07-13T11:58:33;11.80;;;8.45;;
59294;SDS011;45067;44.654;20.200;2023-07-13T12:00:59;12.98;;;8.40;;
59294;SDS011;45067;44.654;20.200;2023-07-13T12:03:29;16.15;;;8.50;;
59294;SDS011;45067;44.654;20.200;2023-07-13T12:05:56;11.15;;;8.15;;
59294;SDS011;45067;44.654;20.200;2023-07-13T12:08:23;13.57;;;9.07;;
59294;SDS011;45067;44.654;20.200;2023-07-13T12:10:55;15.77;;;9.18;;
59294;SDS011;45067;44.654;20.200;2023-07-13T12:13:21;15.25;;;8.85;;
59294;SDS011;45067;44.654;20.200;2023-07-13T12:15:47;13.88;;;8.63;;
59294;SDS011;45067;44.654;20.200;2023-07-13T12:18:15;16.52;;;8.38;;
59294;SDS011;45067;44.654;20.200;2023-07-13T12:20:41;14.32;;;8.75;;
59294;SDS011;45067;44.654;20.200;2023-07-13T12:23:22;13.57;;;8.27;;
59294;SDS011;45067;44.654;20.200;2023-07-13T12:25:50;13.43;;;8.63;;
59294;SDS011;45067;44.654;20.200;2023-07-13T12:28:28;11.88;;;8.80;;
59294;SDS011;45067;44.654;20.200;2023-07-13T12:30:59;11.63;;;8.80;;
59294;SDS011;45067;44.654;20.200;2023-07-13T12:33:28;12.10;;;8.13;;
59294;SDS011;45067;44.654;20.200;2023-07-13T12:35:54;12.90;;;8.52;;
59294;SDS011;45067;44.654;20.200;2023-07-13T12:38:24;14.25;;;9.10;;
59294;SDS011;45067;44.654;20.200;2023-07-13T12:40:51;17.05;;;9.82;;
59294;SDS011;45067;44.654;20.200;2023-07-13T12:43:17;15.38;;;9.15;;
59294;SDS011;45067;44.654;20.200;2023-07-13T12:45:58;17.83;;;9.25;;
59294;SDS011;45067;44.654;20.200;2023-07-13T12:48:28;17.15;;;10.23;;
59294;SDS011;45067;44.654;20.200;2023-07-13T12:50:54;16.23;;;10.60;;
59294;SDS011;45067;44.654;20.200;2023-07-13T12:53:27;16.10;;;10.82;;
59294;SDS011;45067;44.654;20.200;2023-07-13T12:55:56;16.88;;;10.68;;
59294;SDS011;45067;44.654;20.200;2023-07-13T12:58:27;11.00;;;8.75;;
59294;SDS011;45067;44.654;20.200;2023-07-13T13:00:55;16.65;;;9.45;;
59294;SDS011;45067;44.654;20.200;2023-07-13T13:03:32;15.98;;;8.52;;
59294;SDS011;45067;44.654;20.200;2023-07-13T13:08:30;14.20;;;8.82;;
59294;SDS011;45067;44.654;20.200;2023-07-13T13:10:56;13.88;;;7.88;;
59294;SDS011;45067;44.654;20.200;2023-07-13T13:13:22;15.25;;;8.75;;
59294;SDS011;45067;44.654;20.200;2023-07-13T13:15:48;15.13;;;8.75;;
59294;SDS011;45067;44.654;20.200;2023-07-13T13:18:22;16.75;;;9.50;;
59294;SDS011;45067;44.654;20.200;2023-07-13T13:20:49;13.93;;;9.23;;
59294;SDS011;45067;44.654;20.200;2023-07-13T13:23:17;19.27;;;9.32;;
59294;SDS011;45067;44.654;20.200;2023-07-13T13:25:47;13.73;;;9.80;;
59294;SDS011;45067;44.654;20.200;2023-07-13T13:28:18;21.88;;;11.48;;
59294;SDS011;45067;44.654;20.200;2023-07-13T13:30:45;15.65;;;10.90;;
59294;SDS011;45067;44.654;20.200;2023-07-13T13:33:12;16.40;;;9.65;;
59294;SDS011;45067;44.654;20.200;2023-07-13T13:35:39;17.10;;;11.35;;
59294;SDS011;45067;44.654;20.200;2023-07-13T13:38:12;17.58;;;8.95;;
59294;SDS011;45067;44.654;20.200;2023-07-13T13:40:42;16.55;;;8.88;;
59294;SDS011;45067;44.654;20.200;2023-07-13T13:45:41;15.68;;;9.02;;
59294;SDS011;45067;44.654;20.200;2023-07-13T13:48:13;12.52;;;8.60;;
59294;SDS011;45067;44.654;20.200;2023-07-13T13:50:39;14.18;;;8.88;;
59294;SDS011;45067;44.654;20.200;2023-07-13T13:53:08;15.23;;;9.05;;
59294;SDS011;45067;44.654;20.200;2023-07-13T13:55:35;13.63;;;8.52;;
59294;SDS011;45067;44.654;20.200;2023-07-13T13:58:01;16.98;;;8.57;;
59294;SDS011;45067;44.654;20.200;2023-07-13T14:00:28;17.13;;;8.40;;
59294;SDS011;45067;44.654;20.200;2023-07-13T14:02:55;15.05;;;8.00;;
59294;SDS011;45067;44.654;20.200;2023-07-13T14:05:23;12.90;;;8.55;;
59294;SDS011;45067;44.654;20.200;2023-07-13T14:07:53;14.27;;;7.75;;
59294;SDS011;45067;44.654;20.200;2023-07-13T14:10:20;14.35;;;8.90;;
59294;SDS011;45067;44.654;20.200;2023-07-13T14:12:47;12.15;;;7.88;;
59294;SDS011;45067;44.654;20.200;2023-07-13T14:20:12;15.15;;;8.40;;
59294;SDS011;45067;44.654;20.200;2023-07-13T14:25:42;17.20;;;8.60;;
59294;SDS011;45067;44.654;20.200;2023-07-13T14:28:19;17.45;;;8.65;;
59294;SDS011;45067;44.654;20.200;2023-07-13T14:30:46;12.52;;;7.28;;
59294;SDS011;45067;44.654;20.200;2023-07-13T14:33:12;12.50;;;8.25;;
59294;SDS011;45067;44.654;20.200;2023-07-13T14:35:38;14.32;;;8.00;;
59294;SDS011;45067;44.654;20.200;2023-07-13T14:38:05;13.10;;;7.50;;
59294;SDS011;45067;44.654;20.200;2023-07-13T14:43:00;15.48;;;7.65;;
59294;SDS011;45067;44.654;20.200;2023-07-13T14:45:26;15.68;;;7.38;;
59294;SDS011;45067;44.654;20.200;2023-07-13T14:47:52;15.50;;;7.53;;
59294;SDS011;45067;44.654;20.200;2023-07-13T14:56:25;13.77;;;7.75;;
59294;SDS011;45067;44.654;20.200;2023-07-13T14:58:51;12.57;;;7.00;;
59294;SDS011;45067;44.654;20.200;2023-07-13T15:01:18;12.18;;;7.63;;
59294;SDS011;45067;44.654;20.200;2023-07-13T15:03:47;14.82;;;7.70;;
59294;SDS011;45067;44.654;20.200;2023-07-13T15:06:13;14.60;;;8.02;;
59294;SDS011;45067;44.654;20.200;2023-07-13T15:08:40;15.75;;;7.72;;
59294;SDS011;45067;44.654;20.200;2023-07-13T15:11:07;12.15;;;7.68;;
59294;SDS011;45067;44.654;20.200;2023-07-13T15:13:33;21.33;;;12.93;;
59294;SDS011;45067;44.654;20.200;2023-07-13T15:16:00;16.52;;;10.80;;
59294;SDS011;45067;44.654;20.200;2023-07-13T15:18:26;14.50;;;7.32;;
59294;SDS011;45067;44.654;20.200;2023-07-13T15:20:53;26.88;;;9.93;;
59294;SDS011;45067;44.654;20.200;2023-07-13T15:23:20;12.30;;;8.70;;
59294;SDS011;45067;44.654;20.200;2023-07-13T15:25:48;16.50;;;7.88;;
59294;SDS011;45067;44.654;20.200;2023-07-13T15:28:14;16.00;;;7.40;;
59294;SDS011;45067;44.654;20.200;2023-07-13T15:33:11;13.90;;;7.68;;
59294;SDS011;45067;44.654;20.200;2023-07-13T15:35:38;17.05;;;8.43;;
59294;SDS011;45067;44.654;20.200;2023-07-13T15:38:14;13.50;;;7.50;;
59294;SDS011;45067;44.654;20.200;2023-07-13T15:40:41;12.40;;;7.70;;
59294;SDS011;45067;44.654;20.200;2023-07-13T15:43:11;12.73;;;7.85;;
59294;SDS011;45067;44.654;20.200;2023-07-13T15:45:38;16.58;;;7.82;;
59294;SDS011;45067;44.654;20.200;2023-07-13T15:48:15;16.13;;;7.25;;
59294;SDS011;45067;44.654;20.200;2023-07-13T15:50:46;10.30;;;7.68;;
59294;SDS011;45067;44.654;20.200;2023-07-13T15:53:13;16.83;;;8.15;;
59294;SDS011;45067;44.654;20.200;2023-07-13T15:55:41;13.13;;;7.75;;
59294;SDS011;45067;44.654;20.200;2023-07-13T15:58:09;12.82;;;8.15;;
59294;SDS011;45067;44.654;20.200;2023-07-13T16:00:36;16.25;;;8.18;;